Time;durP1;ratioP1;P1;durP2;ratioP2;P2;SDS_P1;SDS_P2;PMS_P1;PMS_P2;Temp;Humidity;BMP_temperature;BMP_pressure;BME280_temperature;BME280_humidity;BME280_pressure;Samples;Min_cycle;Max_cycle;Signal;HPM_P1;HPM_P2
2023/07/01 00:00:32;;;;;;;;;;;;;;;-144.99;81.87;52232.03;5025903;28;19965;-69
2023/07/01 00:02:59;;;;;;;;;;;;;;;-144.99;81.88;52254.47;5026166;28;19936;-68
2023/07/01 00:05:26;;;;;;;;;;;;;;;-144.99;81.93;52240.19;5026110;28;19940;-68
2023/07/01 00:07:52;;;;;;;;;;;;;;;-144.99;81.93;52248.34;5022934;28;19967;-68
2023/07/01 00:10:19;;;;;;;;;;;;;;;-144.99;81.33;52244.28;5025968;28;19965;-68
2023/07/01 00:12:45;;;;;;;;;;;;;;;-144.99;81.20;52234.09;5025895;28;19948;-68
2023/07/01 00:15:13;;;;;;;;;;;;;;;-144.99;81.00;52223.88;5027926;28;19940;-68
2023/07/01 00:17:41;;;;;;;;;;;;;;;-144.99;81.03;52264.66;5029030;28;19941;-68
2023/07/01 00:20:08;;;;;;;;;;;;;;;-144.99;81.06;52268.72;5029005;28;19967;-68
2023/07/01 00:22:35;;;;;;;;;;;;;;;-144.99;81.00;52264.66;5029412;28;19950;-68
2023/07/01 00:25:01;;;;;;;;;;;;;;;-144.99;81.34;52244.28;5021255;28;19955;-69
2023/07/01 00:27:28;;;;;;;;;;;;;;;-144.99;81.61;52238.16;5023023;28;19943;-68
2023/07/01 00:29:55;;;;;;;;;;;;;;;-144.99;81.74;52230.00;5028347;28;19959;-68
2023/07/01 00:32:23;;;;;;;;;;;;;;;-144.99;82.14;52276.88;5028790;28;19962;-68
2023/07/01 00:34:49;;;;;;;;;;;;;;;-144.99;81.91;52244.28;5026778;28;19981;-68
2023/07/01 00:37:16;;;;;;;;;;;;;;;-144.99;82.13;52256.50;5028558;28;19947;-68
2023/07/01 00:39:42;;;;;;;;;;;;;;;-144.99;83.05;52232.03;5027893;28;19976;-69
2023/07/01 00:42:11;;;;;;;;;;;;;;;-144.99;82.74;52264.66;5025880;28;19994;-68
2023/07/01 00:44:38;;;;;;;;;;;;;;;-144.99;82.68;52227.97;5028252;28;20086;-68
2023/07/01 00:47:05;;;;;;;;;;;;;;;-144.99;83.24;52236.13;5028096;28;20095;-68
2023/07/01 00:49:34;;;;;;;;;;;;;;;-144.99;83.12;52232.03;5026834;28;19950;-68
2023/07/01 00:52:00;;;;;;;;;;;;;;;-144.99;83.18;52234.09;5028561;28;19944;-68
2023/07/01 00:54:27;;;;;;;;;;;;;;;-144.99;83.46;52248.34;5022396;28;19945;-68
2023/07/01 00:56:55;;;;;;;;;;;;;;;-144.99;83.84;52240.19;5027713;28;19958;-68
2023/07/01 00:59:21;;;;;;;;;;;;;;;-144.99;83.78;52240.19;5028053;28;19945;-68
2023/07/01 01:01:50;;;;;;;;;;;;;;;-144.99;83.98;52240.19;5028402;28;19967;-69
2023/07/01 01:04:20;;;;;;;;;;;;;;;-144.99;83.73;52252.44;5027924;28;19959;-68
2023/07/01 01:06:52;;;;;;;;;;;;;;;-144.99;83.49;52252.44;5028613;28;19943;-69
2023/07/01 01:09:23;;;;;;;;;;;;;;;-144.99;83.59;52260.56;5027063;28;19941;-68
2023/07/01 01:11:51;;;;;;;;;;;;;;;-144.99;83.89;52260.56;5023781;28;19954;-69
2023/07/01 01:14:17;;;;;;;;;;;;;;;-144.99;84.04;52227.97;5027708;28;19971;-69
2023/07/01 01:16:45;;;;;;;;;;;;;;;-144.99;83.75;52264.66;5027897;28;20447;-69
2023/07/01 01:19:19;;;;;;;;;;;;;;;-144.99;83.85;52280.97;5027181;28;19947;-69
2023/07/01 01:21:47;;;;;;;;;;;;;;;-144.99;83.55;52289.13;5028078;28;19959;-69
2023/07/01 01:24:16;;;;;;;;;;;;;;;-144.99;83.73;52266.69;5029133;28;19943;-69
2023/07/01 01:26:44;;;;;;;;;;;;;;;-144.99;83.50;52258.53;5028547;28;19925;-69
2023/07/01 01:29:13;;;;;;;;;;;;;;;-144.99;83.73;52250.38;5021905;28;19964;-69
2023/07/01 01:31:40;;;;;;;;;;;;;;;-144.99;83.20;52256.50;5027191;28;20317;-69
2023/07/01 01:34:10;;;;;;;;;;;;;;;-144.99;82.80;52258.53;5027871;28;19943;-69
2023/07/01 01:36:38;;;;;;;;;;;;;;;-144.99;82.88;52232.03;5027986;28;20496;-69
2023/07/01 01:39:06;;;;;;;;;;;;;;;-144.99;81.93;52219.81;5031722;28;19940;-69
2023/07/01 01:41:35;;;;;;;;;;;;;;;-144.99;81.99;52203.50;5030913;28;19970;-69
2023/07/01 01:44:05;;;;;;;;;;;;;;;-144.99;81.16;52264.66;5029342;28;19943;-69
2023/07/01 01:46:34;;;;;;;;;;;;;;;-144.99;81.14;52297.25;5021794;28;19960;-69
2023/07/01 01:49:03;;;;;;;;;;;;;;;-144.99;80.73;52248.34;5026540;28;19945;-69
2023/07/01 01:51:31;;;;;;;;;;;;;;;-144.99;80.57;52266.69;5024010;28;19932;-69
2023/07/01 01:53:59;;;;;;;;;;;;;;;-144.99;80.30;52252.44;5027040;28;19939;-69
2023/07/01 01:56:27;;;;;;;;;;;;;;;-144.99;80.19;52256.50;5026517;28;20330;-68
2023/07/01 01:58:54;;;;;;;;;;;;;;;-144.99;80.22;52285.03;5026588;28;19943;-68
2023/07/01 02:01:21;;;;;;;;;;;;;;;-144.99;79.94;52240.19;5026646;28;19959;-68
2023/07/01 02:03:49;;;;;;;;;;;;;;;-144.99;80.06;52252.44;5026603;28;20328;-68
2023/07/01 02:06:15;;;;;;;;;;;;;;;-144.99;79.72;52244.28;5026576;28;19945;-67
2023/07/01 02:08:42;;;;;;;;;;;;;;;-144.99;79.48;52223.88;5033571;28;20307;-68
2023/07/01 02:11:08;;;;;;;;;;;;;;;-144.99;79.71;52244.28;5026017;28;19958;-68
2023/07/01 02:13:35;;;;;;;;;;;;;;;-144.99;79.78;52244.28;5018411;28;19944;-68
2023/07/01 02:16:02;;;;;;;;;;;;;;;-144.99;79.45;52244.28;5029892;28;20408;-68
2023/07/01 02:18:28;;;;;;;;;;;;;;;-144.99;79.53;52244.28;5026279;28;19950;-69
2023/07/01 02:20:56;;;;;;;;;;;;;;;-144.99;79.31;52285.03;5025600;28;19968;-68
2023/07/01 02:23:23;;;;;;;;;;;;;;;-144.99;79.06;52240.19;5026713;28;20356;-68
2023/07/01 02:25:50;;;;;;;;;;;;;;;-144.99;79.21;52268.72;5026456;28;19953;-68
2023/07/01 02:28:16;;;;;;;;;;;;;;;-144.99;79.42;52280.97;5025660;28;19944;-68
2023/07/01 02:30:43;;;;;;;;;;;;;;;-144.99;79.30;52258.53;5026198;28;20355;-68
2023/07/01 02:33:09;;;;;;;;;;;;;;;-144.99;79.54;52234.09;5029147;28;19936;-68
2023/07/01 02:35:36;;;;;;;;;;;;;;;-144.99;80.00;52232.03;5025555;28;19944;-68
2023/07/01 02:38:04;;;;;;;;;;;;;;;-144.99;80.00;52276.88;5025687;28;19937;-68
2023/07/01 02:40:31;;;;;;;;;;;;;;;-144.99;79.67;52293.19;5020570;28;19962;-68
2023/07/01 02:42:57;;;;;;;;;;;;;;;-144.99;79.29;52215.75;5022870;28;20460;-68
2023/07/01 02:45:24;;;;;;;;;;;;;;;-144.99;79.05;52252.44;5024368;28;19939;-68
2023/07/01 02:47:50;;;;;;;;;;;;;;;-144.99;79.14;52240.19;5023831;28;19943;-69
2023/07/01 02:50:17;;;;;;;;;;;;;;;-144.99;78.99;52293.19;5027762;28;19972;-68
2023/07/01 02:52:44;;;;;;;;;;;;;;;-144.99;79.26;52236.13;5025853;28;20393;-68
2023/07/01 02:55:12;;;;;;;;;;;;;;;-144.99;78.90;52266.69;5026541;28;20431;-68
2023/07/01 02:57:38;;;;;;;;;;;;;;;-144.99;79.39;52268.72;5025464;28;20296;-68
2023/07/01 03:00:10;;;;;;;;;;;;;;;-144.99;79.30;52236.13;5026006;28;19966;-68
2023/07/01 03:02:37;;;;;;;;;;;;;;;-144.99;79.75;52264.66;5025572;28;20002;-68
2023/07/01 03:05:04;;;;;;;;;;;;;;;-144.99;80.09;52276.88;5026300;28;19950;-68
2023/07/01 03:07:31;;;;;;;;;;;;;;;-144.99;79.44;52276.88;5026117;28;19996;-68
2023/07/01 03:09:57;;;;;;;;;;;;;;;-144.99;80.13;52219.81;5025391;28;19925;-68
2023/07/01 03:12:25;;;;;;;;;;;;;;;-144.99;80.45;52254.47;5024744;28;20005;-67
2023/07/01 03:14:52;;;;;;;;;;;;;;;-144.99;81.52;52276.88;5026169;28;20037;-68
2023/07/01 03:17:18;;;;;;;;;;;;;;;-144.99;81.01;52264.66;5025407;28;20340;-67
2023/07/01 03:19:45;;;;;;;;;;;;;;;-144.99;81.68;52276.88;5024806;28;19965;-68
2023/07/01 03:22:12;;;;;;;;;;;;;;;-144.99;82.17;52232.03;5025639;28;19929;-68
2023/07/01 03:24:38;;;;;;;;;;;;;;;-144.99;82.27;52293.19;5025600;28;19969;-68
2023/07/01 03:27:06;;;;;;;;;;;;;;;-144.99;82.25;52244.28;5025027;28;19936;-69
2023/07/01 03:29:34;;;;;;;;;;;;;;;-144.99;82.97;52232.03;5030026;28;20033;-68
2023/07/01 03:32:03;;;;;;;;;;;;;;;-144.99;82.88;52232.03;5023255;28;20004;-68
2023/07/01 03:34:29;;;;;;;;;;;;;;;-144.99;82.95;52227.97;5024189;28;19929;-68
2023/07/01 03:36:56;;;;;;;;;;;;;;;-144.99;83.20;52234.09;5025293;28;20044;-68
2023/07/01 03:39:23;;;;;;;;;;;;;;;-144.99;82.93;52244.28;5030590;28;19947;-68
2023/07/01 03:41:49;;;;;;;;;;;;;;;-144.99;82.72;52268.72;5023546;28;19972;-68
2023/07/01 03:44:16;;;;;;;;;;;;;;;-144.99;82.56;52252.44;5019739;28;19967;-68
2023/07/01 03:46:44;;;;;;;;;;;;;;;-144.99;82.96;52264.66;5021412;28;19946;-68
2023/07/01 03:49:11;;;;;;;;;;;;;;;-144.99;83.07;52283.00;5022707;28;19949;-68
2023/07/01 03:51:38;;;;;;;;;;;;;;;-144.99;83.18;52258.53;5029083;28;19958;-68
2023/07/01 03:54:05;;;;;;;;;;;;;;;-144.99;83.03;52289.13;5029116;28;19944;-68
2023/07/01 03:56:32;;;;;;;;;;;;;;;-144.99;82.90;52236.13;5029728;28;19926;-66
2023/07/01 03:58:59;;;;;;;;;;;;;;;-144.99;82.39;52236.13;5020462;28;19946;-67
2023/07/01 04:01:27;;;;;;;;;;;;;;;-144.99;83.38;52230.00;5028798;28;19975;-68
2023/07/01 04:03:55;;;;;;;;;;;;;;;-144.99;82.83;52291.16;5028983;28;19945;-68
2023/07/01 04:06:22;;;;;;;;;;;;;;;-144.99;83.34;52285.03;5022858;28;20005;-68
2023/07/01 04:08:54;;;;;;;;;;;;;;;-144.99;83.54;52244.28;5042687;28;19952;-68
2023/07/01 04:11:21;;;;;;;;;;;;;;;-144.99;83.25;52260.56;5040726;28;20011;-68
2023/07/01 04:13:47;;;;;;;;;;;;;;;-144.99;83.76;52276.88;5043903;28;19944;-68
2023/07/01 04:16:14;;;;;;;;;;;;;;;-144.99;83.88;52280.97;5042547;28;20069;-68
2023/07/01 04:18:41;;;;;;;;;;;;;;;-144.99;83.91;52252.44;5038759;28;19944;-68
2023/07/01 04:21:09;;;;;;;;;;;;;;;-144.99;84.31;52264.66;5041670;28;19977;-68
2023/07/01 04:23:36;;;;;;;;;;;;;;;-144.99;84.54;52264.66;5041006;28;20021;-68
2023/07/01 04:26:03;;;;;;;;;;;;;;;-144.99;84.42;52248.34;5031723;28;19946;-68
2023/07/01 04:28:30;;;;;;;;;;;;;;;-144.99;84.64;52309.50;5038074;28;19984;-68
2023/07/01 04:30:56;;;;;;;;;;;;;;;-144.99;84.28;52260.56;5039944;28;20054;-67
2023/07/01 04:33:23;;;;;;;;;;;;;;;-144.99;84.19;52256.50;5044179;28;19947;-67
2023/07/01 04:35:50;;;;;;;;;;;;;;;-144.99;84.65;52260.56;5040440;28;20047;-68
2023/07/01 04:38:18;;;;;;;;;;;;;;;-144.99;85.15;52248.34;5040499;28;19947;-67
2023/07/01 04:40:44;;;;;;;;;;;;;;;-144.99;84.69;52276.88;5033648;28;20384;-67
2023/07/01 04:43:11;;;;;;;;;;;;;;;-144.99;85.35;52317.66;5031692;28;19959;-67
2023/07/01 04:45:40;;;;;;;;;;;;;;;-144.99;84.72;52244.28;5025862;28;19941;-68
2023/07/01 04:48:06;;;;;;;;;;;;;;;-144.99;84.98;52227.97;5036220;28;19941;-67
2023/07/01 04:50:33;;;;;;;;;;;;;;;-144.99;84.88;52258.53;5028054;28;19982;-67
2023/07/01 04:53:00;;;;;;;;;;;;;;;-144.99;84.84;52240.19;5030667;28;19970;-67
2023/07/01 04:55:28;;;;;;;;;;;;;;;-144.99;85.12;52236.13;5030088;28;20022;-68
2023/07/01 04:57:54;;;;;;;;;;;;;;;-144.99;85.41;52285.03;5028296;28;20308;-68
2023/07/01 05:00:21;;;;;;;;;;;;;;;-144.99;85.38;52244.28;5029365;28;19956;-68
2023/07/01 05:02:48;;;;;;;;;;;;;;;-144.99;84.93;52254.47;5032128;28;20334;-67
2023/07/01 05:05:15;;;;;;;;;;;;;;;-144.99;84.76;52236.13;5024044;28;20079;-67
2023/07/01 05:07:41;;;;;;;;;;;;;;;-144.99;84.74;52260.56;5026504;28;19966;-68
2023/07/01 05:10:08;;;;;;;;;;;;;;;-144.99;84.46;52232.03;5021975;28;19962;-67
2023/07/01 05:12:36;;;;;;;;;;;;;;;-144.99;84.21;52236.13;5028668;28;20411;-67
2023/07/01 05:15:03;;;;;;;;;;;;;;;-144.99;84.26;52244.28;5029583;28;20005;-68
2023/07/01 05:17:30;;;;;;;;;;;;;;;-144.99;84.48;52289.13;5027990;28;20344;-67
2023/07/01 05:19:57;;;;;;;;;;;;;;;-144.99;84.45;52256.50;5026868;28;19973;-67
2023/07/01 05:22:23;;;;;;;;;;;;;;;-144.99;84.65;52309.50;5027232;28;20257;-67
2023/07/01 05:24:50;;;;;;;;;;;;;;;-144.99;85.16;52285.03;5031810;28;19939;-68
2023/07/01 05:27:16;;;;;;;;;;;;;;;-144.99;85.43;52219.81;5026864;28;19946;-68
2023/07/01 05:29:44;;;;;;;;;;;;;;;-144.99;85.74;52248.34;5026664;28;20061;-68
2023/07/01 05:32:11;;;;;;;;;;;;;;;-144.99;86.29;52276.88;5027291;28;19943;-68
2023/07/01 05:34:38;;;;;;;;;;;;;;;-144.99;86.64;52276.88;5022499;28;19932;-67
2023/07/01 05:37:05;;;;;;;;;;;;;;;-144.99;87.37;52252.44;5020703;28;20055;-67
2023/07/01 05:39:31;;;;;;;;;;;;;;;-144.99;87.65;52240.19;5026943;28;19949;-67
2023/07/01 05:41:58;;;;;;;;;;;;;;;-144.99;88.63;52264.66;5027200;28;20422;-68
2023/07/01 05:44:25;;;;;;;;;;;;;;;-144.99;89.04;52305.41;5022660;28;19947;-68
2023/07/01 05:46:53;;;;;;;;;;;;;;;-144.99;89.91;52256.50;5026277;28;19989;-67
2023/07/01 05:49:20;;;;;;;;;;;;;;;-144.99;90.33;52234.09;5031594;28;19997;-68
2023/07/01 05:51:47;;;;;;;;;;;;;;;-144.99;90.93;52280.97;5024234;28;19955;-68
2023/07/01 05:54:14;;;;;;;;;;;;;;;-144.99;92.64;52223.88;5028345;28;19939;-68
2023/07/01 05:56:40;;;;;;;;;;;;;;;-144.99;92.45;52256.50;5025729;28;19963;-68
2023/07/01 05:59:07;;;;;;;;;;;;;;;-144.99;94.25;52256.50;5019543;28;20304;-68
2023/07/01 06:01:33;;;;;;;;;;;;;;;-144.99;95.26;52250.38;5028746;28;19968;-68
2023/07/01 06:04:02;;;;;;;;;;;;;;;-144.99;96.52;52260.56;5020679;28;19967;-68
2023/07/01 06:06:29;;;;;;;;;;;;;;;-144.99;96.70;52272.81;5031848;28;20262;-67
2023/07/01 06:08:55;;;;;;;;;;;;;;;-144.99;97.03;52248.34;5020073;28;20372;-68
2023/07/01 06:11:22;;;;;;;;;;;;;;;-144.99;97.66;52250.38;5025782;28;19974;-68
2023/07/01 06:13:49;;;;;;;;;;;;;;;-144.99;97.39;52258.53;5026972;28;19944;-69
2023/07/01 06:16:16;;;;;;;;;;;;;;;-144.99;97.57;52268.72;5026173;28;19972;-68
2023/07/01 06:18:43;;;;;;;;;;;;;;;-144.99;98.14;52280.97;5025362;28;19974;-68
2023/07/01 06:21:11;;;;;;;;;;;;;;;-144.99;99.03;52264.66;5024293;28;19960;-67
2023/07/01 06:23:37;;;;;;;;;;;;;;;-144.99;99.36;52285.03;5026077;28;19929;-68
2023/07/01 06:26:04;;;;;;;;;;;;;;;-144.99;99.66;52238.16;5025783;28;19979;-70
2023/07/01 06:28:31;;;;;;;;;;;;;;;-144.99;100.00;52278.91;5029603;28;19955;-68
2023/07/01 06:30:58;;;;;;;;;;;;;;;-144.99;100.00;52232.03;5026325;28;20070;-68
2023/07/01 06:33:24;;;;;;;;;;;;;;;-144.99;100.00;52219.81;5021473;28;19976;-68
2023/07/01 06:35:51;;;;;;;;;;;;;;;-144.99;100.00;52223.88;5025279;28;19959;-67
2023/07/01 06:38:19;;;;;;;;;;;;;;;-144.99;100.00;52268.72;5025586;28;20360;-67
2023/07/01 06:40:45;;;;;;;;;;;;;;;-144.99;100.00;52236.13;5025206;28;19958;-67
2023/07/01 06:43:12;;;;;;;;;;;;;;;-144.99;100.00;52285.03;5025880;28;20327;-67
2023/07/01 06:45:39;;;;;;;;;;;;;;;-144.99;100.00;52260.56;5026441;28;19961;-67
2023/07/01 06:48:06;;;;;;;;;;;;;;;-144.99;100.00;52236.13;5027076;28;19966;-68
2023/07/01 06:50:34;;;;;;;;;;;;;;;-144.99;100.00;52268.72;5027812;28;20459;-68
2023/07/01 06:53:01;;;;;;;;;;;;;;;-144.99;100.00;52270.78;5029994;28;19929;-67
2023/07/01 06:55:29;;;;;;;;;;;;;;;-144.99;100.00;52264.66;5019965;28;20406;-67
2023/07/01 06:57:55;;;;;;;;;;;;;;;-144.99;100.00;52248.34;5025832;28;20434;-67
2023/07/01 07:00:22;;;;;;;;;;;;;;;-144.99;100.00;52227.97;5025812;28;19962;-68
2023/07/01 07:02:49;;;;;;;;;;;;;;;-144.99;100.00;52232.03;5025426;28;20378;-68
2023/07/01 07:05:15;;;;;;;;;;;;;;;-144.99;100.00;52254.47;5027571;28;19947;-68
2023/07/01 07:07:42;;;;;;;;;;;;;;;-144.99;100.00;52236.13;5025770;28;20247;-68
2023/07/01 07:10:09;;;;;;;;;;;;;;;-144.99;100.00;52227.97;5023896;28;19929;-68
2023/07/01 07:12:37;;;;;;;;;;;;;;;-144.99;100.00;52256.50;5024054;28;19942;-68
2023/07/01 07:15:04;;;;;;;;;;;;;;;-144.99;100.00;52272.81;5025579;28;19964;-68
2023/07/01 07:17:30;;;;;;;;;;;;;;;-144.99;100.00;52264.66;5025565;28;19944;-68
2023/07/01 07:19:57;;;;;;;;;;;;;;;-144.99;100.00;52264.66;5025033;28;19955;-68
2023/07/01 07:22:24;;;;;;;;;;;;;;;-144.99;100.00;52268.72;5025852;28;19973;-67
2023/07/01 07:24:50;;;;;;;;;;;;;;;-144.99;100.00;52313.56;5027612;28;19948;-67
2023/07/01 07:27:17;;;;;;;;;;;;;;;-144.99;100.00;52244.28;5027998;28;19940;-67
2023/07/01 07:29:45;;;;;;;;;;;;;;;-144.99;100.00;52250.38;5026958;28;19962;-67
2023/07/01 07:32:11;;;;;;;;;;;;;;;-144.99;100.00;52223.88;5029963;28;20294;-67
2023/07/01 07:34:38;;;;;;;;;;;;;;;-144.99;100.00;52240.19;5026523;28;19966;-67
2023/07/01 07:37:05;;;;;;;;;;;;;;;-144.99;100.00;52236.13;5030144;28;20045;-67
2023/07/01 07:39:32;;;;;;;;;;;;;;;-144.99;100.00;52256.50;5029714;28;19951;-67
2023/07/01 07:41:58;;;;;;;;;;;;;;;-144.99;100.00;52219.81;5028880;28;20054;-67
2023/07/01 07:44:25;;;;;;;;;;;;;;;-144.99;100.00;52260.56;5022551;28;20170;-68
2023/07/01 07:46:53;;;;;;;;;;;;;;;-144.99;100.00;52285.03;5027420;28;19951;-69
2023/07/01 07:49:20;;;;;;;;;;;;;;;-144.99;100.00;52252.44;5030270;28;20380;-68
2023/07/01 07:51:46;;;;;;;;;;;;;;;-144.99;100.00;52293.19;5029145;28;19943;-69
2023/07/01 07:54:13;;;;;;;;;;;;;;;-144.99;100.00;52262.63;5029224;28;19951;-69
2023/07/01 07:56:40;;;;;;;;;;;;;;;-144.99;100.00;52256.50;5028504;28;20034;-69
2023/07/01 07:59:07;;;;;;;;;;;;;;;-144.99;100.00;52262.63;5028911;28;19941;-69
2023/07/01 08:01:33;;;;;;;;;;;;;;;-144.99;100.00;52256.50;5028824;28;20014;-69
2023/07/01 08:04:01;;;;;;;;;;;;;;;-144.99;100.00;52248.34;5029728;28;19957;-69
2023/07/01 08:06:28;;;;;;;;;;;;;;;-144.99;100.00;52260.56;5029148;28;19933;-69
2023/07/01 08:08:55;;;;;;;;;;;;;;;-144.99;100.00;52266.69;5027455;28;19957;-70
2023/07/01 08:11:21;;;;;;;;;;;;;;;-144.99;100.00;52260.56;5031467;28;20063;-69
2023/07/01 08:13:48;;;;;;;;;;;;;;;-144.99;100.00;52248.34;5028364;28;19943;-69
2023/07/01 08:16:15;;;;;;;;;;;;;;;-144.99;100.00;52252.44;5028510;28;19925;-70
2023/07/01 08:18:41;;;;;;;;;;;;;;;-144.99;100.00;52248.34;5028951;28;20410;-70
2023/07/01 08:21:09;;;;;;;;;;;;;;;-144.99;100.00;52191.28;5024124;28;20373;-69
2023/07/01 08:23:36;;;;;;;;;;;;;;;-144.99;100.00;52227.97;5028875;28;19960;-72
2023/07/01 08:26:03;;;;;;;;;;;;;;;-144.99;100.00;52250.38;5025571;28;20444;-70
2023/07/01 08:28:31;;;;;;;;;;;;;;;-144.99;100.00;52293.19;5029005;28;19992;-68
2023/07/01 08:30:58;;;;;;;;;;;;;;;-144.99;100.00;52236.13;5029128;28;19951;-68
2023/07/01 08:33:25;;;;;;;;;;;;;;;-144.99;100.00;52260.56;5024764;28;20379;-68
2023/07/01 08:35:52;;;;;;;;;;;;;;;-144.99;100.00;52268.72;5027857;28;19939;-68
2023/07/01 08:38:19;;;;;;;;;;;;;;;-144.99;100.00;52252.44;5028654;28;19933;-69
2023/07/01 08:40:46;;;;;;;;;;;;;;;-144.99;100.00;52244.28;5031264;28;19970;-69
2023/07/01 08:43:13;;;;;;;;;;;;;;;-144.99;100.00;52236.13;5025571;28;19955;-69
2023/07/01 08:45:40;;;;;;;;;;;;;;;-144.99;100.00;52264.66;5032356;28;19955;-69
2023/07/01 08:48:08;;;;;;;;;;;;;;;-144.99;100.00;52250.38;5031206;28;19962;-70
2023/07/01 08:50:43;;;;;;;;;;;;;;;-144.99;100.00;52289.13;5030460;28;19956;-68
2023/07/01 08:53:11;;;;;;;;;;;;;;;-144.99;100.00;52248.34;5026192;28;20267;-69
2023/07/01 08:55:40;;;;;;;;;;;;;;;-144.99;100.00;52260.56;5031046;28;19943;-69
2023/07/01 08:58:06;;;;;;;;;;;;;;;-144.99;100.00;52260.56;5028138;28;19990;-70
2023/07/01 09:00:33;;;;;;;;;;;;;;;-144.99;100.00;52219.81;5028386;28;20073;-68
2023/07/01 09:03:02;;;;;;;;;;;;;;;-144.99;100.00;52248.34;5030439;28;19956;-69
2023/07/01 09:05:29;;;;;;;;;;;;;;;-144.99;100.00;52264.66;5027835;28;20078;-69
2023/07/01 09:07:56;;;;;;;;;;;;;;;-144.99;100.00;52270.78;5029226;28;19942;-68
2023/07/01 09:10:23;;;;;;;;;;;;;;;-144.99;100.00;52268.72;5034622;28;19959;-68
2023/07/01 09:12:51;;;;;;;;;;;;;;;-144.99;100.00;52240.19;5026790;28;19925;-69
2023/07/01 09:15:17;;;;;;;;;;;;;;;-144.99;100.00;52248.34;5027441;28;19947;-71
2023/07/01 09:17:44;;;;;;;;;;;;;;;-144.99;100.00;52236.13;5025305;28;19961;-68
2023/07/01 09:20:12;;;;;;;;;;;;;;;-144.99;100.00;52244.28;5027080;28;19956;-69
2023/07/01 09:22:39;;;;;;;;;;;;;;;-144.99;100.00;52248.34;5027380;28;19955;-69
2023/07/01 09:25:06;;;;;;;;;;;;;;;-144.99;100.00;52252.44;5027516;28;20064;-69
2023/07/01 09:27:40;;;;;;;;;;;;;;;-144.99;100.00;52248.34;5026100;28;20081;-68
2023/07/01 09:30:23;;;;;;;;;;;;;;;-144.99;100.00;52248.34;5025606;28;19951;-68
2023/07/01 09:32:49;;;;;;;;;;;;;;;-144.99;100.00;52227.97;5030506;28;19943;-69
2023/07/01 09:35:16;;;;;;;;;;;;;;;-144.99;100.00;52256.50;5025586;28;19950;-67
2023/07/01 09:37:42;;;;;;;;;;;;;;;-144.99;100.00;52232.03;5026563;28;19950;-67
2023/07/01 09:40:18;;;;;;;;;;;;;;;-144.99;100.00;52240.19;5035068;28;20186;-69
2023/07/01 09:42:50;;;;;;;;;;;;;;;-144.99;100.00;52203.50;5024965;28;19956;-69
2023/07/01 09:45:18;;;;;;;;;;;;;;;-144.99;100.00;52248.34;5027150;28;19945;-69
2023/07/01 09:47:45;;;;;;;;;;;;;;;-144.99;100.00;52260.56;5034768;28;20008;-69
2023/07/01 09:50:20;;;;;;;;;;;;;;;-144.99;100.00;52236.13;5027680;28;19929;-69
2023/07/01 09:52:48;;;;;;;;;;;;;;;-144.99;100.00;52266.69;5027049;28;20168;-70
2023/07/01 09:55:15;;;;;;;;;;;;;;;-144.99;100.00;52248.34;5027054;28;19959;-70
2023/07/01 09:57:42;;;;;;;;;;;;;;;-144.99;100.00;52268.72;5018632;28;20386;-68
2023/07/01 10:00:11;;;;;;;;;;;;;;;-144.99;100.00;52223.88;5026583;28;19956;-69
2023/07/01 10:02:40;;;;;;;;;;;;;;;-144.99;100.00;52258.53;5026078;28;19949;-68
2023/07/01 10:05:06;;;;;;;;;;;;;;;-144.99;100.00;52252.44;5029665;28;19946;-69
2023/07/01 10:07:33;;;;;;;;;;;;;;;-144.99;100.00;52254.47;5026538;28;20027;-70
2023/07/01 10:10:01;;;;;;;;;;;;;;;-144.99;100.00;52248.34;5025582;28;20456;-68
2023/07/01 10:12:27;;;;;;;;;;;;;;;-144.99;100.00;52252.44;5025415;28;20389;-69
2023/07/01 10:14:54;;;;;;;;;;;;;;;-144.99;100.00;52219.81;5026576;28;20052;-69
2023/07/01 10:17:21;;;;;;;;;;;;;;;-144.99;100.00;52211.66;5025815;28;19945;-69
2023/07/01 10:19:50;;;;;;;;;;;;;;;-144.99;100.00;52248.34;5022164;28;20133;-69
2023/07/01 10:22:20;;;;;;;;;;;;;;;-144.99;100.00;52260.56;5030639;28;19992;-69
2023/07/01 10:24:46;;;;;;;;;;;;;;;-144.99;100.00;52223.88;5026516;28;20054;-71
2023/07/01 10:27:13;;;;;;;;;;;;;;;-144.99;100.00;52260.56;5025392;28;19966;-69
2023/07/01 10:29:40;;;;;;;;;;;;;;;-144.99;100.00;52256.50;5026383;28;19965;-69
2023/07/01 10:32:25;;;;;;;;;;;;;;;-144.99;100.00;52252.44;5026091;28;20317;-70
2023/07/01 10:35:11;;;;;;;;;;;;;;;-144.99;100.00;52252.44;5025185;28;20235;-69
2023/07/01 10:37:39;;;;;;;;;;;;;;;-144.99;100.00;52211.66;5026498;28;19990;-69
2023/07/01 10:40:39;;;;;;;;;;;;;;;-144.99;100.00;52260.56;5018501;28;20409;-70
2023/07/01 10:43:20;;;;;;;;;;;;;;;-144.99;100.00;52221.84;5020864;28;19957;-69
2023/07/01 10:45:47;;;;;;;;;;;;;;;-144.99;100.00;52252.44;5026255;28;20300;-70
2023/07/01 10:48:14;;;;;;;;;;;;;;;-144.99;100.00;52211.66;5028196;28;19932;-69
2023/07/01 10:50:56;;;;;;;;;;;;;;;-144.99;100.00;52256.50;5022357;28;20326;-71
2023/07/01 10:53:24;;;;;;;;;;;;;;;-144.99;100.00;52244.28;5026717;28;19967;-68
2023/07/01 10:55:50;;;;;;;;;;;;;;;-144.99;100.00;52252.44;5026597;28;20360;-68
2023/07/01 10:58:21;;;;;;;;;;;;;;;-144.99;100.00;52252.44;5025742;28;19925;-68
2023/07/01 11:00:48;;;;;;;;;;;;;;;-144.99;100.00;52223.88;5026781;28;19968;-71
2023/07/01 11:03:33;;;;;;;;;;;;;;;-144.99;100.00;52244.28;5026532;28;20059;-71
2023/07/01 11:06:01;;;;;;;;;;;;;;;-144.99;100.00;52207.59;5027484;28;19947;-69
2023/07/01 11:08:31;;;;;;;;;;;;;;;-144.99;100.00;52232.03;5021763;28;21633;-70
2023/07/01 11:10:58;;;;;;;;;;;;;;;-144.99;100.00;52276.88;5023003;28;20292;-70
2023/07/01 11:13:25;;;;;;;;;;;;;;;-144.99;100.00;52217.78;5026394;28;19939;-69
2023/07/01 11:16:01;;;;;;;;;;;;;;;-144.99;100.00;52252.44;5026764;28;19941;-69
2023/07/01 11:18:40;;;;;;;;;;;;;;;-144.99;100.00;52236.13;5027839;28;19945;-69
2023/07/01 11:21:06;;;;;;;;;;;;;;;-144.99;100.00;52219.81;5027699;28;19951;-69
2023/07/01 11:23:34;;;;;;;;;;;;;;;-144.99;100.00;52260.56;5036636;28;19973;-69
2023/07/01 11:26:01;;;;;;;;;;;;;;;-144.99;100.00;52276.88;5040124;28;19950;-69
2023/07/01 11:28:34;;;;;;;;;;;;;;;-144.99;100.00;52248.34;5048713;28;19940;-70
2023/07/01 11:31:09;;;;;;;;;;;;;;;-144.99;100.00;52207.59;5036907;28;20167;-69
2023/07/01 11:33:36;;;;;;;;;;;;;;;-144.99;100.00;52244.28;5035713;28;19946;-70
2023/07/01 11:36:03;;;;;;;;;;;;;;;-144.99;100.00;52248.34;5035228;28;19950;-70
2023/07/01 11:38:30;;;;;;;;;;;;;;;-144.99;100.00;52227.97;5035135;28;19939;-70
2023/07/01 11:40:58;;;;;;;;;;;;;;;-144.99;100.00;52219.81;5034713;28;19952;-70
2023/07/01 11:43:26;;;;;;;;;;;;;;;-144.99;100.00;52260.56;5031983;28;20273;-70
2023/07/01 11:45:53;;;;;;;;;;;;;;;-144.99;100.00;52227.97;5028718;28;19958;-70
2023/07/01 11:48:29;;;;;;;;;;;;;;;-144.99;100.00;52232.03;5041393;28;19942;-68
2023/07/01 11:50:56;;;;;;;;;;;;;;;-144.99;100.00;52248.34;5049662;28;20234;-69
2023/07/01 11:53:23;;;;;;;;;;;;;;;-144.99;100.00;52252.44;5034660;28;20424;-70
2023/07/01 11:55:49;;;;;;;;;;;;;;;-144.99;100.00;52232.03;5044188;28;19946;-69
2023/07/01 11:58:31;;;;;;;;;;;;;;;-144.99;100.00;52211.66;5032132;28;19950;-68
2023/07/01 12:00:58;;;;;;;;;;;;;;;-144.99;100.00;52242.22;5037295;28;20413;-71
2023/07/01 12:03:25;;;;;;;;;;;;;;;-144.99;100.00;52230.00;5038418;28;19966;-71
2023/07/01 12:05:52;;;;;;;;;;;;;;;-144.99;100.00;52268.72;5022710;28;19969;-70
2023/07/01 12:08:18;;;;;;;;;;;;;;;-144.99;100.00;52221.84;5029339;28;20058;-70
2023/07/01 12:10:45;;;;;;;;;;;;;;;-144.99;100.00;52252.44;5028467;28;19925;-70
2023/07/01 12:13:26;;;;;;;;;;;;;;;-144.99;100.00;52244.28;5032358;28;19935;-71
2023/07/01 12:15:55;;;;;;;;;;;;;;;-144.99;100.00;52264.66;5033941;28;19971;-70
2023/07/01 12:18:22;;;;;;;;;;;;;;;-144.99;100.00;52223.88;5029956;28;20423;-71
2023/07/01 12:20:48;;;;;;;;;;;;;;;-144.99;100.00;52258.53;5029466;28;20007;-72
2023/07/01 12:23:15;;;;;;;;;;;;;;;-144.99;100.00;52211.66;5030963;28;19954;-69
2023/07/01 12:25:42;;;;;;;;;;;;;;;-144.99;100.00;52215.75;5028292;28;19946;-68